Time;durP1;ratioP1;P1;durP2;ratioP2;P2;SDS_P1;SDS_P2;PMS_P1;PMS_P2;Temp;Humidity;BMP_temperature;BMP_pressure;BME280_temperature;BME280_humidity;BME280_pressure;Samples;Min_cycle;Max_cycle;Signal;HPM_P1;HPM_P2
2022/07/19 00:02:06;;;;;;;;;;;;;;;21.19;nan;98466.25;5002401;28;19937;-77
2022/07/19 00:04:34;;;;;;;;;;;;;;;21.18;nan;98468.22;5026258;28;19925;-78
2022/07/19 00:07:02;;;;;;;;;;;;;;;21.19;nan;98471.78;5007350;28;19926;-77
2022/07/19 00:09:31;;;;;;;;;;;;;;;21.16;nan;98467.78;5020240;28;20064;-77
2022/07/19 00:11:59;;;;;;;;;;;;;;;21.13;nan;98465.75;5010398;28;19948;-78
2022/07/19 00:14:27;;;;;;;;;;;;;;;20.99;nan;98460.00;5025310;28;19925;-77
2022/07/19 00:16:55;;;;;;;;;;;;;;;20.98;nan;98463.09;5002193;28;19926;-77
2022/07/19 00:19:23;;;;;;;;;;;;;;;20.95;nan;98461.88;5008326;28;19925;-78
2022/07/19 00:21:51;;;;;;;;;;;;;;;20.89;nan;98458.63;5007947;28;19929;-77
2022/07/19 00:24:22;;;;;;;;;;;;;;;20.91;nan;98459.03;5011057;28;19930;-77
2022/07/19 00:26:51;;;;;;;;;;;;;;;20.84;nan;98461.69;5024753;28;19967;-77
2022/07/19 00:29:19;;;;;;;;;;;;;;;20.78;nan;98462.34;4993930;28;19952;-77
2022/07/19 00:31:47;;;;;;;;;;;;;;;20.74;nan;98464.25;5002913;28;19925;-77
2022/07/19 00:34:15;;;;;;;;;;;;;;;20.79;nan;98461.19;5001780;28;19932;-77
2022/07/19 00:36:43;;;;;;;;;;;;;;;20.74;nan;98461.47;4991957;28;20206;-77
2022/07/19 00:39:11;;;;;;;;;;;;;;;20.74;nan;98462.28;5003438;28;19930;-77
2022/07/19 00:41:39;;;;;;;;;;;;;;;20.68;nan;98452.69;5010269;28;19979;-77
2022/07/19 00:44:09;;;;;;;;;;;;;;;20.65;nan;98461.69;5001188;28;19926;-77
2022/07/19 00:46:37;;;;;;;;;;;;;;;20.64;nan;98454.59;5000840;28;20371;-77
2022/07/19 00:49:05;;;;;;;;;;;;;;;20.62;nan;98462.44;5010593;28;19979;-77
2022/07/19 00:51:34;;;;;;;;;;;;;;;20.58;nan;98458.81;5026210;28;20063;-77
2022/07/19 00:54:02;;;;;;;;;;;;;;;20.56;nan;98464.69;5009064;28;19925;-77
2022/07/19 00:56:30;;;;;;;;;;;;;;;20.42;nan;98461.59;4989234;28;19929;-77
2022/07/19 00:58:58;;;;;;;;;;;;;;;20.38;nan;98466.25;5005017;28;19933;-78
2022/07/19 01:01:28;;;;;;;;;;;;;;;20.38;nan;98471.75;5021625;28;19925;-77
2022/07/19 01:03:56;;;;;;;;;;;;;;;20.38;nan;98474.53;4993996;28;19926;-77
2022/07/19 01:06:24;;;;;;;;;;;;;;;20.27;nan;98479.03;4978665;28;20327;-78
2022/07/19 01:08:52;;;;;;;;;;;;;;;20.24;nan;98485.25;4981702;28;20013;-77
2022/07/19 01:11:45;;;;;;;;;;;;;;;20.22;nan;98479.31;5014087;28;19930;-77
2022/07/19 01:14:15;;;;;;;;;;;;;;;20.14;nan;98483.88;5012710;28;20296;-77
2022/07/19 01:16:45;;;;;;;;;;;;;;;20.19;nan;98485.53;5003369;28;19925;-77
2022/07/19 01:19:13;;;;;;;;;;;;;;;20.19;nan;98480.84;4996851;28;19983;-77
2022/07/19 01:21:43;;;;;;;;;;;;;;;20.13;nan;98476.75;5014379;28;20012;-77
2022/07/19 01:24:10;;;;;;;;;;;;;;;20.15;nan;98480.75;5004401;28;20388;-77
2022/07/19 01:26:38;;;;;;;;;;;;;;;20.15;nan;98478.00;5026501;28;20083;-77
2022/07/19 01:29:07;;;;;;;;;;;;;;;20.13;nan;98485.00;5010848;28;19952;-77
2022/07/19 01:31:34;;;;;;;;;;;;;;;20.12;nan;98475.94;5021681;28;19999;-77
2022/07/19 01:36:56;;;;;;;;;;;;;;;19.92;nan;98470.75;5027319;28;19968;-77
2022/07/19 01:39:24;;;;;;;;;;;;;;;19.91;nan;98471.91;4996644;28;20016;-77
2022/07/19 01:41:52;;;;;;;;;;;;;;;19.91;nan;98466.41;5012289;28;20292;-77
2022/07/19 01:44:20;;;;;;;;;;;;;;;19.89;nan;98475.84;5006519;28;20032;-77
2022/07/19 01:46:48;;;;;;;;;;;;;;;19.85;nan;98466.66;4974978;28;19991;-77
2022/07/19 01:49:16;;;;;;;;;;;;;;;19.79;nan;98473.63;5013918;28;19925;-77
2022/07/19 01:51:44;;;;;;;;;;;;;;;19.71;nan;98471.88;4996636;28;19961;-77
2022/07/19 01:54:13;;;;;;;;;;;;;;;19.66;nan;98477.66;5012419;28;20024;-77
2022/07/19 01:56:42;;;;;;;;;;;;;;;19.67;nan;98465.47;4996520;28;20028;-77
2022/07/19 01:59:16;;;;;;;;;;;;;;;19.71;nan;98466.38;4980310;28;19988;-77
2022/07/19 02:01:44;;;;;;;;;;;;;;;19.68;nan;98466.28;5008639;28;20284;-77
2022/07/19 02:04:13;;;;;;;;;;;;;;;19.70;nan;98461.97;5012376;28;20032;-77
2022/07/19 02:06:41;;;;;;;;;;;;;;;19.69;nan;98465.09;5008635;28;19926;-77
2022/07/19 02:09:08;;;;;;;;;;;;;;;19.50;nan;98465.81;5013236;28;19925;-77
2022/07/19 02:11:38;;;;;;;;;;;;;;;19.56;nan;98465.19;5006430;28;19925;-77
2022/07/19 02:14:07;;;;;;;;;;;;;;;19.50;nan;98460.31;5011010;28;19929;-77
2022/07/19 02:16:35;;;;;;;;;;;;;;;19.45;nan;98457.81;5007218;28;19926;-77
2022/07/19 02:19:04;;;;;;;;;;;;;;;19.52;nan;98457.97;5012269;28;19926;-77
2022/07/19 02:21:33;;;;;;;;;;;;;;;19.47;nan;98458.25;4980736;28;19940;-76
2022/07/19 02:24:01;;;;;;;;;;;;;;;19.47;nan;98450.00;4987972;28;20022;-77
2022/07/19 02:26:29;;;;;;;;;;;;;;;19.43;nan;98460.91;4991180;28;19933;-77
2022/07/19 02:29:04;;;;;;;;;;;;;;;19.43;nan;98460.13;5011822;28;20264;-77
2022/07/19 02:31:32;;;;;;;;;;;;;;;19.35;nan;98456.41;4999178;28;19929;-77
2022/07/19 02:36:52;;;;;;;;;;;;;;;19.34;nan;98457.56;5021060;28;19933;-77
2022/07/19 02:39:21;;;;;;;;;;;;;;;19.31;nan;98458.25;5012059;28;19925;-77
2022/07/19 02:41:49;;;;;;;;;;;;;;;19.24;nan;98458.09;4995096;28;20291;-77
2022/07/19 02:44:18;;;;;;;;;;;;;;;19.18;nan;98460.31;5012636;28;20390;-77
2022/07/19 02:46:46;;;;;;;;;;;;;;;19.14;nan;98464.91;5002488;28;19952;-77
2022/07/19 02:49:14;;;;;;;;;;;;;;;19.06;nan;98461.16;4976175;28;20388;-77
2022/07/19 02:51:42;;;;;;;;;;;;;;;19.06;nan;98463.13;5027510;28;19988;-77
2022/07/19 02:54:10;;;;;;;;;;;;;;;19.00;nan;98470.03;5013223;28;19971;-77
2022/07/19 02:56:38;;;;;;;;;;;;;;;18.93;nan;98478.13;5005118;28;20020;-78
2022/07/19 03:01:59;;;;;;;;;;;;;;;18.88;nan;98478.38;5020140;28;19945;-77
2022/07/19 03:04:27;;;;;;;;;;;;;;;18.87;nan;98479.53;5009101;28;19925;-77
2022/07/19 03:06:55;;;;;;;;;;;;;;;18.83;nan;98479.44;5010055;28;19929;-77
2022/07/19 03:09:23;;;;;;;;;;;;;;;18.82;nan;98475.88;5012623;28;19925;-77
2022/07/19 03:11:51;;;;;;;;;;;;;;;18.83;nan;98476.69;5027614;28;19925;-77
2022/07/19 03:14:19;;;;;;;;;;;;;;;18.84;nan;98467.25;4994544;28;19932;-79
2022/07/19 03:16:47;;;;;;;;;;;;;;;18.73;nan;98472.47;5015876;28;19926;-79
2022/07/19 03:19:16;;;;;;;;;;;;;;;18.75;nan;98475.69;4973541;28;19971;-78
2022/07/19 03:21:44;;;;;;;;;;;;;;;18.68;nan;98475.50;5007805;28;19932;-79
2022/07/19 03:24:11;;;;;;;;;;;;;;;18.64;nan;98474.53;5007059;28;19952;-78
2022/07/19 03:26:40;;;;;;;;;;;;;;;18.64;nan;98477.31;5011535;28;19925;-78
2022/07/19 03:29:07;;;;;;;;;;;;;;;18.66;nan;98476.97;5010663;28;19925;-78
2022/07/19 03:31:39;;;;;;;;;;;;;;;18.63;nan;98467.44;5006369;28;19929;-78
2022/07/19 03:34:12;;;;;;;;;;;;;;;18.67;nan;98473.06;5009667;28;19926;-79
2022/07/19 03:36:41;;;;;;;;;;;;;;;18.69;nan;98479.03;5003108;28;19926;-78
2022/07/19 03:39:09;;;;;;;;;;;;;;;18.64;nan;98482.81;5012004;28;19925;-78
2022/07/19 03:41:38;;;;;;;;;;;;;;;18.68;nan;98472.72;5011869;28;19925;-78
2022/07/19 03:44:05;;;;;;;;;;;;;;;18.71;nan;98468.50;4994263;28;19925;-78
2022/07/19 03:46:34;;;;;;;;;;;;;;;18.82;nan;98464.88;5005509;28;19936;-78
2022/07/19 03:49:02;;;;;;;;;;;;;;;18.72;nan;98462.63;5025489;28;19937;-78
2022/07/19 03:51:30;;;;;;;;;;;;;;;18.70;nan;98456.69;4999102;28;19925;-77
2022/07/19 03:54:00;;;;;;;;;;;;;;;18.66;nan;98464.00;5021173;28;19971;-77
2022/07/19 03:56:28;;;;;;;;;;;;;;;18.63;nan;98464.69;5012378;28;20092;-77
2022/07/19 03:58:56;;;;;;;;;;;;;;;18.64;nan;98469.03;5011298;28;19972;-77
2022/07/19 04:01:24;;;;;;;;;;;;;;;18.52;nan;98466.34;4984635;28;19980;-78
2022/07/19 04:03:52;;;;;;;;;;;;;;;18.52;nan;98469.91;5009359;28;19925;-78
2022/07/19 04:06:20;;;;;;;;;;;;;;;18.49;nan;98469.81;4993526;28;20289;-76
2022/07/19 04:08:47;;;;;;;;;;;;;;;18.52;nan;98471.84;5009726;28;20379;-75
2022/07/19 04:11:17;;;;;;;;;;;;;;;18.51;nan;98482.06;5025583;28;20100;-75
2022/07/19 04:13:44;;;;;;;;;;;;;;;18.48;nan;98479.19;5020234;28;19925;-80
2022/07/19 04:16:13;;;;;;;;;;;;;;;18.49;nan;98480.81;4991361;28;19925;-79
2022/07/19 04:18:41;;;;;;;;;;;;;;;18.52;nan;98480.09;5009129;28;20351;-78
2022/07/19 04:21:08;;;;;;;;;;;;;;;18.51;nan;98482.06;5011676;28;19934;-79
2022/07/19 04:26:32;;;;;;;;;;;;;;;18.61;nan;98478.03;5001361;28;19980;-79
2022/07/19 04:29:00;;;;;;;;;;;;;;;18.57;nan;98490.88;5011135;28;19925;-78
2022/07/19 04:31:27;;;;;;;;;;;;;;;18.58;nan;98497.97;5006213;28;20066;-78
2022/07/19 04:33:55;;;;;;;;;;;;;;;18.58;nan;98498.75;5014812;28;19961;-79
2022/07/19 04:36:24;;;;;;;;;;;;;;;18.62;nan;98493.38;5016298;28;19925;-76
2022/07/19 04:38:52;;;;;;;;;;;;;;;18.64;nan;98499.31;4986387;28;19965;-79
2022/07/19 04:41:19;;;;;;;;;;;;;;;18.65;nan;98492.69;5014170;28;19960;-79
2022/07/19 04:43:53;;;;;;;;;;;;;;;18.69;nan;98492.78;5013616;28;19979;-78
2022/07/19 04:46:21;;;;;;;;;;;;;;;18.69;nan;98487.28;5008743;28;19981;-80
2022/07/19 04:48:49;;;;;;;;;;;;;;;18.67;nan;98490.38;4978226;28;19930;-89
2022/07/19 04:51:18;;;;;;;;;;;;;;;18.83;nan;98485.75;5004854;28;19996;-95
2022/07/19 04:53:46;;;;;;;;;;;;;;;18.85;nan;98496.38;4967445;28;19926;-85
2022/07/19 04:56:14;;;;;;;;;;;;;;;18.86;nan;98491.72;5011524;28;19984;-93
2022/07/19 04:58:43;;;;;;;;;;;;;;;18.87;nan;98487.81;4976387;28;19980;-79
2022/07/19 05:01:12;;;;;;;;;;;;;;;18.92;nan;98496.59;4995805;28;20067;-82
2022/07/19 05:03:40;;;;;;;;;;;;;;;18.97;nan;98490.84;5018696;28;19940;-84
2022/07/19 05:06:11;;;;;;;;;;;;;;;18.99;nan;98491.28;5018443;28;19934;-82
2022/07/19 05:08:39;;;;;;;;;;;;;;;19.04;nan;98487.47;5012758;28;20008;-84
2022/07/19 05:11:10;;;;;;;;;;;;;;;19.07;nan;98493.09;5026590;28;19926;-87
2022/07/19 05:13:38;;;;;;;;;;;;;;;19.14;nan;98486.16;5014651;28;20334;-81
2022/07/19 05:16:10;;;;;;;;;;;;;;;19.17;nan;98491.75;4986398;28;19926;-91
2022/07/19 05:18:43;;;;;;;;;;;;;;;19.22;nan;98487.94;4958112;28;20012;-81
2022/07/19 05:21:11;;;;;;;;;;;;;;;19.26;nan;98495.13;4989086;28;19934;-78
2022/07/19 05:24:04;;;;;;;;;;;;;;;19.29;nan;98488.94;4958506;28;19957;-80
2022/07/19 05:26:33;;;;;;;;;;;;;;;19.36;nan;98494.59;5009476;28;19997;-85
2022/07/19 05:29:01;;;;;;;;;;;;;;;19.46;nan;98487.78;5009116;28;19988;-79
2022/07/19 05:31:29;;;;;;;;;;;;;;;19.53;nan;98492.66;4984225;28;20071;-81
2022/07/19 05:36:50;;;;;;;;;;;;;;;19.58;nan;98489.63;5003179;28;19926;-81
2022/07/19 05:39:18;;;;;;;;;;;;;;;19.60;nan;98490.09;4995680;28;19981;-79
2022/07/19 05:41:46;;;;;;;;;;;;;;;19.70;nan;98488.75;4995305;28;20009;-82
2022/07/19 05:44:14;;;;;;;;;;;;;;;19.76;nan;98485.38;4977083;28;19925;-78
2022/07/19 05:46:42;;;;;;;;;;;;;;;19.83;nan;98485.53;5015550;28;19925;-81
2022/07/19 05:49:12;;;;;;;;;;;;;;;19.88;nan;98487.22;5030427;28;20356;-80
2022/07/19 05:51:40;;;;;;;;;;;;;;;19.96;nan;98490.94;5015869;28;20303;-82
2022/07/19 05:54:09;;;;;;;;;;;;;;;20.02;nan;98492.25;5020568;28;19929;-80
2022/07/19 05:56:37;;;;;;;;;;;;;;;20.13;nan;98494.13;5035463;28;19925;-82
2022/07/19 05:59:05;;;;;;;;;;;;;;;20.19;nan;98491.88;5025327;28;20335;-78
2022/07/19 06:01:33;;;;;;;;;;;;;;;20.27;nan;98490.06;4995049;28;19930;-77
2022/07/19 06:04:02;;;;;;;;;;;;;;;20.34;nan;98484.69;4988808;28;20408;-80
2022/07/19 06:09:24;;;;;;;;;;;;;;;20.50;nan;98476.38;4986611;28;19948;-78
2022/07/19 06:11:52;;;;;;;;;;;;;;;20.57;nan;98477.31;4996341;28;19926;-80
2022/07/19 06:14:20;;;;;;;;;;;;;;;20.66;nan;98486.16;4979936;28;19930;-80
2022/07/19 06:16:48;;;;;;;;;;;;;;;20.74;nan;98478.03;4981494;28;19925;-81
2022/07/19 06:19:16;;;;;;;;;;;;;;;20.80;nan;98480.13;4993425;28;19930;-79
2022/07/19 06:21:45;;;;;;;;;;;;;;;20.89;nan;98486.25;5006594;28;19926;-80
2022/07/19 06:24:13;;;;;;;;;;;;;;;20.98;nan;98479.66;4975424;28;19968;-80
2022/07/19 06:26:41;;;;;;;;;;;;;;;21.05;nan;98477.84;4991253;28;19988;-76
2022/07/19 06:29:09;;;;;;;;;;;;;;;21.15;nan;98477.25;5008252;28;19987;-80
2022/07/19 06:31:37;;;;;;;;;;;;;;;21.24;nan;98476.19;5003263;28;21422;-80
2022/07/19 06:34:13;;;;;;;;;;;;;;;21.34;nan;98475.63;4990716;28;19932;-77
2022/07/19 06:36:47;;;;;;;;;;;;;;;21.43;nan;98482.50;4993523;28;19940;-80
2022/07/19 06:39:17;;;;;;;;;;;;;;;21.53;nan;98480.28;4975300;28;19942;-80
2022/07/19 06:41:46;;;;;;;;;;;;;;;21.59;nan;98490.66;4999196;28;19932;-80
2022/07/19 06:44:18;;;;;;;;;;;;;;;21.69;nan;98483.72;5009564;28;19980;-80
2022/07/19 06:46:46;;;;;;;;;;;;;;;21.80;nan;98481.09;4973578;28;19933;-80
2022/07/19 06:49:21;;;;;;;;;;;;;;;21.90;nan;98481.28;4973665;28;20392;-81
2022/07/19 06:51:49;;;;;;;;;;;;;;;21.98;nan;98477.41;4955932;28;19934;-81
2022/07/19 06:54:18;;;;;;;;;;;;;;;22.07;nan;98476.38;4970469;28;20033;-76
2022/07/19 06:56:46;;;;;;;;;;;;;;;22.17;nan;98475.75;5004113;28;19926;-76
2022/07/19 06:59:14;;;;;;;;;;;;;;;22.26;nan;98473.47;5004349;28;19949;-79
2022/07/19 07:01:42;;;;;;;;;;;;;;;22.39;nan;98474.06;4977663;28;19926;-75
2022/07/19 07:04:10;;;;;;;;;;;;;;;22.49;nan;98471.44;4968793;28;20396;-78
2022/07/19 07:06:38;;;;;;;;;;;;;;;22.61;nan;98464.03;4972455;28;19930;-76
2022/07/19 07:09:06;;;;;;;;;;;;;;;22.75;nan;98469.75;5005356;28;19937;-79
2022/07/19 07:12:00;;;;;;;;;;;;;;;22.91;nan;98464.03;4971217;28;20365;-76
2022/07/19 07:14:32;;;;;;;;;;;;;;;23.02;nan;98459.38;5006777;28;19985;-76
2022/07/19 07:17:29;;;;;;;;;;;;;;;23.15;nan;98459.91;4996434;28;20004;-77
2022/07/19 07:20:00;;;;;;;;;;;;;;;23.27;nan;98459.59;4987836;28;19926;-79
2022/07/19 07:22:28;;;;;;;;;;;;;;;23.46;nan;98451.06;4983304;28;19930;-78
2022/07/19 07:24:57;;;;;;;;;;;;;;;23.60;nan;98460.69;4966377;28;19926;-74
2022/07/19 07:27:29;;;;;;;;;;;;;;;23.70;nan;98454.44;4967919;28;20349;-75
2022/07/19 07:29:57;;;;;;;;;;;;;;;23.81;nan;98452.56;4973007;28;20009;-76
2022/07/19 07:32:26;;;;;;;;;;;;;;;23.95;nan;98446.28;4996454;28;19937;-77
2022/07/19 07:34:54;;;;;;;;;;;;;;;24.06;nan;98449.91;4970783;28;19926;-78
2022/07/19 07:37:22;;;;;;;;;;;;;;;24.13;nan;98449.16;4968944;28;19926;-79
2022/07/19 07:39:50;;;;;;;;;;;;;;;24.22;nan;98449.63;4972345;28;19926;-79
2022/07/19 07:42:18;;;;;;;;;;;;;;;24.36;nan;98446.16;4973919;28;19930;-80
2022/07/19 07:44:48;;;;;;;;;;;;;;;24.42;nan;98445.38;4971643;28;19926;-80
2022/07/19 07:47:16;;;;;;;;;;;;;;;24.49;nan;98448.16;4995188;28;19926;-79
2022/07/19 07:49:44;;;;;;;;;;;;;;;24.59;nan;98437.50;4962222;28;19973;-80
2022/07/19 07:52:12;;;;;;;;;;;;;;;24.68;nan;98438.72;4970412;28;19934;-80
2022/07/19 07:54:40;;;;;;;;;;;;;;;24.78;nan;98440.75;4977581;28;20013;-79
2022/07/19 07:57:35;;;;;;;;;;;;;;;24.85;nan;98437.19;4981140;28;20373;-79
2022/07/19 08:00:30;;;;;;;;;;;;;;;24.98;nan;98432.84;4962428;28;19937;-79
2022/07/19 08:02:58;;;;;;;;;;;;;;;25.12;nan;98431.31;4969488;28;19934;-80
2022/07/19 08:05:48;;;;;;;6.63;2.10;;;;;;;25.26;34.27;98434.09;5079971;27;20407;-65
2022/07/19 08:08:17;;;;;;;6.60;2.33;;;;;;;25.40;34.06;98431.31;5073122;28;20435;-65
2022/07/19 08:10:45;;;;;;;9.77;1.92;;;;;;;25.53;34.14;98426.16;5078427;28;20402;-66
2022/07/19 08:13:16;;;;;;;5.50;1.70;;;;;;;25.68;33.51;98430.50;5077876;28;20411;-65
2022/07/19 08:15:47;;;;;;;4.10;1.88;;;;;;;25.73;34.60;98426.53;5060514;28;20416;-65
2022/07/19 08:18:15;;;;;;;5.90;1.95;;;;;;;25.89;33.08;98424.16;5017204;28;20445;-65
2022/07/19 08:20:48;;;;;;;3.42;1.65;;;;;;;26.02;32.70;98421.72;5015958;28;20436;-66
2022/07/19 08:23:17;;;;;;;4.47;1.80;;;;;;;26.13;32.44;98423.28;5016339;28;20847;-65
2022/07/19 08:25:45;;;;;;;6.00;1.70;;;;;;;26.32;32.30;98418.44;5007745;28;20433;-66
2022/07/19 08:28:14;;;;;;;3.78;2.00;;;;;;;26.34;32.36;98421.63;5009313;28;20711;-65
2022/07/19 08:30:43;;;;;;;4.60;1.67;;;;;;;26.35;31.86;98421.19;5004744;28;20710;-65
2022/07/19 08:33:31;;;;;;;5.45;1.80;;;;;;;26.40;31.83;98422.78;5013774;28;20403;-65
2022/07/19 08:36:01;;;;;;;5.27;2.17;;;;;;;26.44;31.84;98415.25;5014776;28;20796;-66
2022/07/19 08:38:30;;;;;;;5.43;1.90;;;;;;;26.52;31.55;98418.78;5018123;28;20404;-65
2022/07/19 08:41:00;;;;;;;3.90;1.92;;;;;;;26.57;31.35;98416.34;5012989;28;20742;-65
2022/07/19 08:43:29;;;;;;;3.30;1.92;;;;;;;26.66;31.87;98410.34;5005272;28;20431;-65
2022/07/19 08:46:01;;;;;;;4.40;1.80;;;;;;;26.82;30.32;98413.44;5004054;28;20434;-65
2022/07/19 08:48:33;;;;;;;3.35;1.70;;;;;;;26.99;29.33;98416.50;5011895;28;20497;-64
2022/07/19 08:51:10;;;;;;;3.92;1.50;;;;;;;27.10;29.41;98412.47;5014105;28;20498;-65
2022/07/19 08:53:40;;;;;;;4.10;1.70;;;;;;;27.13;30.54;98411.66;5014350;28;20487;-65
2022/07/19 08:58:51;;;;;;;3.75;1.70;;;;;;;27.22;29.76;98407.59;5011779;28;20403;-65
2022/07/19 09:01:19;;;;;;;4.87;1.80;;;;;;;27.34;29.17;98421.09;5008325;28;20420;-65
2022/07/19 09:04:09;;;;;;;4.53;1.90;;;;;;;27.38;29.44;98402.31;5017890;28;20419;-65
2022/07/19 09:06:46;;;;;;;3.38;1.77;;;;;;;27.49;29.04;98402.22;5014219;28;20422;-65
2022/07/19 09:09:20;;;;;;;4.28;1.67;;;;;;;27.52;28.88;98404.97;5009418;28;20806;-65
2022/07/19 09:11:52;;;;;;;3.10;1.90;;;;;;;27.64;28.86;98406.44;5014022;28;20430;-65
2022/07/19 09:14:24;;;;;;;3.90;1.90;;;;;;;27.69;28.34;98392.03;5045129;28;20863;-65
2022/07/19 09:17:00;;;;;;;4.68;2.78;;;;;;;27.71;27.65;98394.47;4998308;28;20421;-65
2022/07/19 09:19:56;;;;;;;3.80;1.83;;;;;;;27.81;28.54;98387.97;4998248;28;20510;-65
2022/07/19 09:22:28;;;;;;;3.65;1.88;;;;;;;27.75;27.77;98393.22;4995528;28;20412;-65
2022/07/19 09:24:56;;;;;;;3.55;1.50;;;;;;;27.78;29.09;98402.75;4997975;28;20910;-66
2022/07/19 09:27:29;;;;;;;4.80;1.85;;;;;;;27.86;28.13;98384.75;5003018;28;20849;-65
2022/07/19 09:29:59;;;;;;;4.20;1.80;;;;;;;27.93;27.72;98382.66;5000243;28;20405;-65
2022/07/19 09:32:28;;;;;;;5.55;1.70;;;;;;;28.17;27.12;98389.13;4992233;28;20433;-65
2022/07/19 09:34:58;;;;;;;5.93;2.10;;;;;;;28.27;27.08;98389.44;4992696;28;20442;-64
2022/07/19 09:37:29;;;;;;;3.80;2.00;;;;;;;28.15;27.88;98380.41;4995080;28;20415;-63
2022/07/19 09:39:58;;;;;;;4.93;1.73;;;;;;;28.21;27.36;98397.50;5002544;28;20416;-64
2022/07/19 09:42:40;;;;;;;8.50;1.83;;;;;;;28.25;26.79;98391.88;4993330;28;20441;-64
2022/07/19 09:45:11;;;;;;;8.50;2.00;;;;;;;28.25;27.18;98394.66;4996198;28;20425;-64
2022/07/19 09:47:46;;;;;;;7.82;1.88;;;;;;;28.28;26.91;98391.81;5004046;28;20447;-64
2022/07/19 09:50:40;;;;;;;5.30;2.15;;;;;;;28.38;26.50;98387.31;5016456;28;20749;-64
2022/07/19 09:53:09;;;;;;;4.35;2.10;;;;;;;28.45;27.15;98387.25;5002690;28;20424;-64
2022/07/19 09:55:45;;;;;;;5.68;2.00;;;;;;;28.45;26.80;98396.44;4997018;28;20415;-64
2022/07/19 09:58:14;;;;;;;7.03;1.80;;;;;;;28.42;27.17;98390.88;4997475;28;20477;-64
2022/07/19 10:00:46;;;;;;;4.25;1.88;;;;;;;28.46;26.91;98394.41;4996127;28;20837;-65
2022/07/19 10:03:15;;;;;;;4.87;2.00;;;;;;;28.55;26.11;98386.31;5000040;28;20889;-64
2022/07/19 10:05:46;;;;;;;4.95;2.08;;;;;;;28.71;25.44;98394.09;5001794;28;20420;-64
2022/07/19 10:08:16;;;;;;;6.00;1.70;;;;;;;29.01;24.34;98381.28;5000382;28;20917;-64
2022/07/19 10:10:44;;;;;;;3.60;1.43;;;;;;;28.89;25.57;98380.63;5000273;28;20421;-64
2022/07/19 10:13:13;;;;;;;5.75;2.20;;;;;;;28.98;24.96;98377.34;5000727;28;21310;-64
2022/07/19 10:15:43;;;;;;;4.20;1.80;;;;;;;29.05;25.21;98376.44;4992740;28;20656;-64
2022/07/19 10:18:13;;;;;;;4.45;2.30;;;;;;;29.09;25.18;98371.56;5004615;28;20405;-64
2022/07/19 10:20:46;;;;;;;4.00;1.70;;;;;;;29.11;24.58;98367.13;5004331;28;20412;-64
2022/07/19 10:23:16;;;;;;;8.10;2.25;;;;;;;29.18;25.20;98366.22;5003019;28;20757;-65
2022/07/19 10:25:46;;;;;;;4.87;1.60;;;;;;;29.26;24.80;98372.50;4997674;28;20550;-65
2022/07/19 10:28:29;;;;;;;2.88;1.65;;;;;;;29.42;23.81;98370.59;4995424;28;20423;-64
2022/07/19 10:31:27;;;;;;;7.95;1.77;;;;;;;29.38;23.53;98364.28;4994061;28;20424;-64
2022/07/19 10:36:54;;;;;;;5.15;1.63;;;;;;;29.41;24.04;98354.25;5003766;28;20428;-64
2022/07/19 10:39:29;;;;;;;3.20;1.60;;;;;;;29.58;22.95;98361.56;5001248;28;20408;-64
2022/07/19 10:42:25;;;;;;;4.13;1.42;;;;;;;29.62;23.64;98359.50;4995907;28;20431;-64
2022/07/19 10:45:14;;;;;;;4.03;1.50;;;;;;;29.69;23.16;98367.75;4999769;28;20788;-63
2022/07/19 10:48:15;;;;;;;5.70;1.67;;;;;;;29.61;24.83;98360.69;5003406;28;20412;-64
2022/07/19 10:51:12;;;;;;;14.18;2.03;;;;;;;29.48;23.58;98351.31;4985566;28;20430;-64
2022/07/19 10:54:05;;;;;;;6.28;2.03;;;;;;;29.55;23.46;98337.19;4985160;28;20925;-64
2022/07/19 10:56:59;;;;;;;4.80;1.70;;;;;;;29.86;22.71;98340.63;4995803;28;20473;-64
2022/07/19 10:59:37;;;;;;;3.00;1.67;;;;;;;29.98;23.14;98341.97;5000108;28;20416;-64
2022/07/19 11:02:07;;;;;;;4.53;1.70;;;;;;;29.85;23.81;98339.03;4997195;28;20778;-64
2022/07/19 11:04:56;;;;;;;5.68;1.83;;;;;;;29.90;23.32;98340.56;5002204;28;20447;-64
2022/07/19 11:07:25;;;;;;;6.87;2.30;;;;;;;29.85;24.18;98336.25;5009085;28;20426;-64
2022/07/19 11:09:55;;;;;;;31.63;4.15;;;;;;;29.81;24.06;98337.53;5000777;28;20423;-64
2022/07/19 11:12:31;;;;;;;5.35;2.28;;;;;;;29.55;24.17;98328.00;4995914;28;20409;-64
2022/07/19 11:15:01;;;;;;;4.82;1.88;;;;;;;29.42;24.00;98327.81;5003036;28;20427;-64
2022/07/19 11:18:14;;;;;;;18.45;2.67;;;;;;;29.58;23.77;98321.56;5002660;28;20409;-64
2022/07/19 11:20:42;;;;;;;3.93;1.80;;;;;;;29.73;23.58;98318.06;5007051;28;20400;-64
2022/07/19 11:23:10;;;;;;;18.50;2.90;;;;;;;29.81;23.17;98306.72;5003653;28;20430;-64
2022/07/19 11:25:40;;;;;;;7.07;1.97;;;;;;;29.99;22.54;98312.75;5007512;28;20419;-64
2022/07/19 11:28:20;;;;;;;9.23;2.25;;;;;;;29.96;24.26;98308.78;5003118;28;20413;-64
2022/07/19 11:30:49;;;;;;;33.70;4.53;;;;;;;29.81;23.90;98307.50;4993415;28;20429;-64
2022/07/19 11:33:18;;;;;;;16.48;2.47;;;;;;;29.69;23.59;98306.16;5005119;28;20754;-64
2022/07/19 11:35:57;;;;;;;4.75;1.90;;;;;;;29.80;23.30;98300.31;5007959;28;20518;-64
2022/07/19 11:38:34;;;;;;;7.25;2.33;;;;;;;29.85;23.10;98308.22;5003150;28;20765;-64
2022/07/19 11:41:03;;;;;;;59.35;5.65;;;;;;;29.77;24.13;98297.59;5000998;28;20742;-65
2022/07/19 11:43:32;;;;;;;17.53;2.70;;;;;;;29.78;23.78;98302.78;5007078;28;20439;-64
2022/07/19 11:46:01;;;;;;;16.40;2.60;;;;;;;29.85;23.23;98291.44;4994649;28;20888;-64
2022/07/19 11:48:30;;;;;;;26.67;3.25;;;;;;;29.94;22.72;98297.25;5001786;28;20431;-65
2022/07/19 11:51:04;;;;;;;11.30;2.22;;;;;;;30.12;22.31;98296.09;4999349;28;20416;-64
2022/07/19 11:53:37;;;;;;;14.43;2.60;;;;;;;30.15;23.09;98290.44;4998226;28;20452;-64
2022/07/19 11:56:09;;;;;;;11.73;2.65;;;;;;;30.09;23.07;98289.31;5000668;28;20416;-64
2022/07/19 11:58:41;;;;;;;12.10;2.80;;;;;;;30.12;22.35;98294.09;5002706;28;20425;-64
2022/07/19 12:01:10;;;;;;;216.55;14.30;;;;;;;30.12;22.96;98291.28;5005885;28;20413;-65
2022/07/19 12:03:38;;;;;;;7.63;2.10;;;;;;;30.19;22.25;98284.72;5023140;28;20461;-64
2022/07/19 12:06:10;;;;;;;61.15;4.82;;;;;;;30.26;22.09;98288.19;5037344;28;20538;-64
2022/07/19 12:08:41;;;;;;;7.10;2.70;;;;;;;30.31;21.68;98283.25;5022296;28;20414;-64
2022/07/19 12:11:21;;;;;;;10.77;2.20;;;;;;;30.32;22.39;98291.25;5019471;28;20429;-64
2022/07/19 12:13:52;;;;;;;15.70;2.70;;;;;;;30.35;22.61;98278.38;5021627;28;20403;-64
2022/07/19 12:16:22;;;;;;;54.28;5.22;;;;;;;30.32;21.73;98279.25;5018343;28;20425;-63
2022/07/19 12:18:55;;;;;;;12.98;2.10;;;;;;;30.37;21.96;98284.34;5029156;28;20516;-64
2022/07/19 12:21:27;;;;;;;10.73;2.50;;;;;;;30.41;22.47;98294.22;5027628;28;20928;-63
2022/07/19 12:24:20;;;;;;;37.97;5.10;;;;;;;30.24;22.85;98285.00;5029971;28;20490;-63
2022/07/19 12:27:00;;;;;;;4.80;2.10;;;;;;;30.24;22.98;98276.59;5008994;28;20978;-64
2022/07/19 12:29:35;;;;;;;11.87;2.50;;;;;;;30.22;23.30;98281.06;5025010;28;20472;-64
2022/07/19 12:32:05;;;;;;;5.40;2.35;;;;;;;30.26;23.00;98271.38;4994507;28;20493;-64
2022/07/19 12:34:47;;;;;;;6.85;2.22;;;;;;;30.29;22.72;98255.69;4996114;28;20421;-64
2022/07/19 12:37:24;;;;;;;8.38;2.20;;;;;;;30.30;22.48;98264.88;4998824;28;20424;-63
2022/07/19 12:40:00;;;;;;;8.17;2.20;;;;;;;30.27;23.08;98264.53;4996341;28;20888;-63
2022/07/19 12:42:40;;;;;;;7.82;1.88;;;;;;;30.38;22.49;98255.09;4994397;28;20506;-63
2022/07/19 12:45:12;;;;;;;3.95;1.95;;;;;;;30.48;22.21;98248.44;4996290;28;20408;-63
2022/07/19 12:50:35;;;;;;;5.95;2.15;;;;;;;30.47;23.04;98249.69;5027571;28;20440;-65
2022/07/19 12:53:05;;;;;;;9.82;2.33;;;;;;;30.43;22.63;98246.94;5005065;28;20411;-64
2022/07/19 12:55:35;;;;;;;7.43;2.17;;;;;;;30.60;22.58;98249.75;5006643;28;20420;-64
2022/07/19 12:58:08;;;;;;;6.20;2.33;;;;;;;30.52;22.60;98246.31;4997804;28;20917;-64
2022/07/19 13:00:41;;;;;;;5.78;2.30;;;;;;;30.52;22.33;98243.53;4997167;28;20423;-64
2022/07/19 13:03:14;;;;;;;4.72;2.10;;;;;;;30.58;21.20;98243.81;4999219;28;20812;-63
2022/07/19 13:05:43;;;;;;;9.75;2.10;;;;;;;30.56;21.60;98232.22;4998402;28;20688;-64
2022/07/19 13:08:11;;;;;;;8.10;2.20;;;;;;;30.53;22.28;98234.69;5000371;28;20430;-64
2022/07/19 13:10:40;;;;;;;4.78;2.13;;;;;;;30.51;22.73;98225.13;5005943;28;20469;-63
2022/07/19 13:13:10;;;;;;;7.55;2.28;;;;;;;30.51;22.32;98227.94;5003357;28;20417;-64
2022/07/19 13:15:40;;;;;;;4.53;2.05;;;;;;;30.81;21.63;98240.06;4996045;28;20416;-63